Time;durP1;ratioP1;P1;durP2;ratioP2;P2;SDS_P1;SDS_P2;PMS_P1;PMS_P2;Temp;Humidity;BMP_temperature;BMP_pressure;BME280_temperature;BME280_humidity;BME280_pressure;Samples;Min_cycle;Max_cycle;Signal;HPM_P1;HPM_P2
2024/03/06 00:00:38;;;;;;;24.60;3.78;;;;;;;;;;5105116;28;20098;-33
2024/03/06 00:03:05;;;;;;;21.23;3.53;;;;;;;;;;5114268;28;20450;-28
2024/03/06 00:05:32;;;;;;;15.35;3.50;;;;;;;;;;5099643;28;20059;-27
2024/03/06 00:08:00;;;;;;;16.10;3.17;;;;;;;;;;5103432;28;20705;-28
2024/03/06 00:10:27;;;;;;;19.42;3.33;;;;;;;;;;5098913;28;20040;-34
2024/03/06 00:12:54;;;;;;;18.83;3.58;;;;;;;;;;5097986;28;20016;-28
2024/03/06 00:15:21;;;;;;;16.55;3.50;;;;;;;;;;5099829;28;20109;-33
2024/03/06 00:17:49;;;;;;;19.02;3.50;;;;;;;;;;5100420;28;20094;-33
2024/03/06 00:20:16;;;;;;;19.50;3.10;;;;;;;;;;5099758;28;20362;-29
2024/03/06 00:22:44;;;;;;;18.35;3.35;;;;;;;;;;5078603;28;20039;-28
2024/03/06 00:25:10;;;;;;;17.52;2.97;;;;;;;;;;5104939;28;20079;-27
2024/03/06 00:27:38;;;;;;;19.58;3.45;;;;;;;;;;5098433;28;20032;-27
2024/03/06 00:30:06;;;;;;;22.33;3.25;;;;;;;;;;5093671;28;20543;-32
2024/03/06 00:32:34;;;;;;;27.65;3.95;;;;;;;;;;5096230;28;20035;-29
2024/03/06 00:35:01;;;;;;;18.85;3.08;;;;;;;;;;5082370;28;20054;-29
2024/03/06 00:37:28;;;;;;;20.92;3.17;;;;;;;;;;5097644;28;20382;-31
2024/03/06 00:39:54;;;;;;;16.42;2.65;;;;;;;;;;5093330;28;20050;-32
2024/03/06 00:42:21;;;;;;;18.45;2.85;;;;;;;;;;5096721;28;20047;-34
2024/03/06 00:44:48;;;;;;;15.63;2.88;;;;;;;;;;5096476;28;20024;-28
2024/03/06 00:47:15;;;;;;;16.27;3.17;;;;;;;;;;5078572;28;20083;-32
2024/03/06 00:49:42;;;;;;;11.23;2.58;;;;;;;;;;5096557;28;20125;-31
2024/03/06 00:52:09;;;;;;;18.83;3.42;;;;;;;;;;5099825;28;20028;-35
2024/03/06 00:54:36;;;;;;;13.10;3.05;;;;;;;;;;5097851;28;20055;-31
2024/03/06 00:57:03;;;;;;;15.68;2.83;;;;;;;;;;5096305;28;20070;-26
2024/03/06 00:59:30;;;;;;;18.02;2.70;;;;;;;;;;5088519;28;20036;-30
2024/03/06 01:01:57;;;;;;;20.45;2.50;;;;;;;;;;5113577;27;20024;-28
2024/03/06 01:04:25;;;;;;;15.05;2.70;;;;;;;;;;5096422;28;20099;-30
2024/03/06 01:06:52;;;;;;;17.58;2.47;;;;;;;;;;5096133;28;20034;-31
2024/03/06 01:09:19;;;;;;;20.35;4.03;;;;;;;;;;5105809;28;20036;-31
2024/03/06 01:11:47;;;;;;;17.45;2.90;;;;;;;;;;5100012;28;20028;-30
2024/03/06 01:14:14;;;;;;;22.38;3.22;;;;;;;;;;5092574;28;20070;-28
2024/03/06 01:16:41;;;;;;;18.23;3.60;;;;;;;;;;5107916;28;20063;-32
2024/03/06 01:19:08;;;;;;;26.50;3.47;;;;;;;;;;5090351;28;20367;-28
2024/03/06 01:21:35;;;;;;;17.65;2.92;;;;;;;;;;5112896;28;20038;-32
2024/03/06 01:24:03;;;;;;;21.33;3.92;;;;;;;;;;5099011;28;20044;-36
2024/03/06 01:26:30;;;;;;;31.73;6.85;;;;;;;;;;5111350;28;20559;-30
2024/03/06 01:28:57;;;;;;;44.15;9.68;;;;;;;;;;5095919;28;20107;-27
2024/03/06 01:31:24;;;;;;;129.75;32.03;;;;;;;;;;5094693;28;20024;-32
2024/03/06 01:33:52;;;;;;;139.90;33.78;;;;;;;;;;5105513;28;20393;-32
2024/03/06 01:36:19;;;;;;;141.00;35.03;;;;;;;;;;5096683;28;20038;-30
2024/03/06 01:38:46;;;;;;;125.43;34.85;;;;;;;;;;5093574;28;20020;-32
2024/03/06 01:41:13;;;;;;;121.47;32.88;;;;;;;;;;5094199;28;20085;-31
2024/03/06 01:43:40;;;;;;;101.97;27.80;;;;;;;;;;5093575;28;20024;-32
2024/03/06 01:46:08;;;;;;;82.95;22.88;;;;;;;;;;5104561;28;20639;-30
2024/03/06 01:48:35;;;;;;;65.65;18.55;;;;;;;;;;5092761;28;20034;-30
2024/03/06 01:51:04;;;;;;;66.22;16.33;;;;;;;;;;5094482;28;20085;-29
2024/03/06 01:53:33;;;;;;;51.30;13.20;;;;;;;;;;5112056;28;20103;-33
2024/03/06 01:56:00;;;;;;;44.35;11.40;;;;;;;;;;5111194;28;20532;-31
2024/03/06 01:58:28;;;;;;;37.95;11.20;;;;;;;;;;5111648;28;20084;-28
2024/03/06 02:00:55;;;;;;;48.88;10.68;;;;;;;;;;5107833;28;20040;-30
2024/03/06 02:03:22;;;;;;;36.15;10.05;;;;;;;;;;5102232;28;20032;-27
2024/03/06 02:05:54;;;;;;;42.95;10.20;;;;;;;;;;5096246;28;20481;-29
2024/03/06 02:08:21;;;;;;;38.50;9.35;;;;;;;;;;5092845;28;20028;-33
2024/03/06 02:10:48;;;;;;;31.35;7.78;;;;;;;;;;5092774;28;20024;-31
2024/03/06 02:13:15;;;;;;;34.28;7.00;;;;;;;;;;5101271;27;20027;-30
2024/03/06 02:15:42;;;;;;;30.23;6.80;;;;;;;;;;5105627;28;20088;-29
2024/03/06 02:18:09;;;;;;;22.25;6.43;;;;;;;;;;5093833;28;20028;-30
2024/03/06 02:20:42;;;;;;;28.83;6.03;;;;;;;;;;5098259;28;20027;-30
2024/03/06 02:23:08;;;;;;;;;;;;;;;;;;5098002;28;20035;-27
2024/03/06 02:25:35;;;;;;;21.90;5.28;;;;;;;;;;5099585;28;19923;-28
2024/03/06 02:28:02;;;;;;;23.17;5.50;;;;;;;;;;5080329;28;20113;-29
2024/03/06 02:30:35;;;;;;;27.83;5.07;;;;;;;;;;5082962;28;20062;-29
2024/03/06 02:33:13;;;;;;;19.27;4.72;;;;;;;;;;5102900;28;20485;-34
2024/03/06 02:35:40;;;;;;;19.85;4.60;;;;;;;;;;5090863;28;20028;-29
2024/03/06 02:38:07;;;;;;;15.55;3.95;;;;;;;;;;5102502;28;20057;-29
2024/03/06 02:40:34;;;;;;;16.73;3.40;;;;;;;;;;5093185;28;20028;-26
2024/03/06 02:43:01;;;;;;;19.40;3.85;;;;;;;;;;5095504;28;20032;-30
2024/03/06 02:45:28;;;;;;;12.63;3.28;;;;;;;;;;5105658;28;20042;-28
2024/03/06 02:47:55;;;;;;;13.73;3.20;;;;;;;;;;5093543;28;20031;-29
2024/03/06 02:50:23;;;;;;;17.17;3.40;;;;;;;;;;5093398;28;20076;-28
2024/03/06 02:52:51;;;;;;;12.20;3.33;;;;;;;;;;5093531;28;20122;-28
2024/03/06 02:55:18;;;;;;;13.55;2.45;;;;;;;;;;5093915;28;20043;-29
2024/03/06 02:57:45;;;;;;;11.10;2.78;;;;;;;;;;5093367;28;20016;-28
2024/03/06 03:00:13;;;;;;;12.88;3.00;;;;;;;;;;5093540;28;20405;-28
2024/03/06 03:02:40;;;;;;;12.88;3.03;;;;;;;;;;5106895;28;20051;-32
2024/03/06 03:05:08;;;;;;;13.95;2.80;;;;;;;;;;5096487;28;20031;-28
2024/03/06 03:07:35;;;;;;;12.57;3.15;;;;;;;;;;5107641;28;20024;-31
2024/03/06 03:10:02;;;;;;;9.68;2.22;;;;;;;;;;5076880;28;20053;-29
2024/03/06 03:12:29;;;;;;;9.07;2.35;;;;;;;;;;5100892;28;20031;-30
2024/03/06 03:14:56;;;;;;;11.85;2.53;;;;;;;;;;5111477;28;20095;-29
2024/03/06 03:17:23;;;;;;;13.82;3.35;;;;;;;;;;5111629;28;20486;-30
2024/03/06 03:19:49;;;;;;;9.35;2.45;;;;;;;;;;5111760;28;20051;-30
2024/03/06 03:22:16;;;;;;;10.63;2.47;;;;;;;;;;5111608;28;20501;-29
2024/03/06 03:24:43;;;;;;;17.75;3.17;;;;;;;;;;5111169;28;20505;-29
2024/03/06 03:27:11;;;;;;;11.27;2.92;;;;;;;;;;5111654;28;20028;-31
2024/03/06 03:29:37;;;;;;;11.40;2.22;;;;;;;;;;5111630;28;20024;-29
2024/03/06 03:32:05;;;;;;;13.80;2.05;;;;;;;;;;5111545;28;20097;-29
2024/03/06 03:34:32;;;;;;;11.18;2.22;;;;;;;;;;5111462;28;20036;-33
2024/03/06 03:37:05;;;;;;;12.38;2.40;;;;;;;;;;5111558;28;20068;-30
2024/03/06 03:39:32;;;;;;;10.20;2.13;;;;;;;;;;5111611;28;20552;-29
2024/03/06 03:41:59;;;;;;;9.85;1.90;;;;;;;;;;5093022;28;20026;-28
2024/03/06 03:44:26;;;;;;;8.00;1.83;;;;;;;;;;5111398;28;20035;-27
2024/03/06 03:46:53;;;;;;;8.55;2.20;;;;;;;;;;5111516;28;20107;-27
2024/03/06 03:49:19;;;;;;;7.95;1.90;;;;;;;;;;5111601;28;20045;-27
2024/03/06 03:51:47;;;;;;;8.27;2.15;;;;;;;;;;5111610;28;20023;-28
2024/03/06 03:54:14;;;;;;;7.68;1.70;;;;;;;;;;5114992;28;20019;-27
2024/03/06 03:56:41;;;;;;;8.20;2.17;;;;;;;;;;5115088;28;20028;-28
2024/03/06 03:59:08;;;;;;;7.90;1.67;;;;;;;;;;5115172;28;20038;-27
2024/03/06 04:01:35;;;;;;;7.60;1.63;;;;;;;;;;5115097;28;20023;-31
2024/03/06 04:04:02;;;;;;;10.18;1.90;;;;;;;;;;5114888;28;20038;-27
2024/03/06 04:06:29;;;;;;;8.95;1.60;;;;;;;;;;5114992;28;20024;-26
2024/03/06 04:08:56;;;;;;;6.03;1.67;;;;;;;;;;5114871;28;20096;-27
2024/03/06 04:11:22;;;;;;;7.82;1.88;;;;;;;;;;5114810;28;20023;-27
2024/03/06 04:13:50;;;;;;;6.53;2.13;;;;;;;;;;5114686;28;20032;-26
2024/03/06 04:16:18;;;;;;;6.78;1.45;;;;;;;;;;5114892;28;20037;-27
2024/03/06 04:18:48;;;;;;;9.60;1.77;;;;;;;;;;5114669;28;20096;-28
2024/03/06 04:21:15;;;;;;;3.38;1.30;;;;;;;;;;5114653;28;20024;-28
2024/03/06 04:23:42;;;;;;;6.78;1.63;;;;;;;;;;5114542;28;20769;-27
2024/03/06 04:26:09;;;;;;;7.53;1.85;;;;;;;;;;5114421;28;20131;-28
2024/03/06 04:28:36;;;;;;;10.13;1.70;;;;;;;;;;5114597;28;20024;-27
2024/03/06 04:31:03;;;;;;;6.05;1.67;;;;;;;;;;5114533;28;20056;-26
2024/03/06 04:33:30;;;;;;;6.68;1.50;;;;;;;;;;5114251;28;20106;-26
2024/03/06 04:35:57;;;;;;;7.40;1.85;;;;;;;;;;5114412;28;20024;-27
2024/03/06 04:38:24;;;;;;;5.35;1.42;;;;;;;;;;5114448;28;20071;-29
2024/03/06 04:40:52;;;;;;;3.85;1.23;;;;;;;;;;5114296;28;20715;-27
2024/03/06 04:43:19;;;;;;;7.03;1.27;;;;;;;;;;5114149;28;20036;-27
2024/03/06 04:45:46;;;;;;;6.25;1.40;;;;;;;;;;5114055;28;20031;-26
2024/03/06 04:48:13;;;;;;;8.10;1.70;;;;;;;;;;5114154;28;20034;-26
2024/03/06 04:50:41;;;;;;;6.30;1.40;;;;;;;;;;5114105;28;20012;-34
2024/03/06 04:53:08;;;;;;;5.43;1.40;;;;;;;;;;5113875;28;20077;-29
2024/03/06 04:55:36;;;;;;;5.43;1.50;;;;;;;;;;5114054;28;20016;-27
2024/03/06 04:58:04;;;;;;;7.40;1.40;;;;;;;;;;5113876;28;20385;-27
2024/03/06 05:00:31;;;;;;;5.10;1.40;;;;;;;;;;5113983;28;20097;-27
2024/03/06 05:02:58;;;;;;;5.05;1.33;;;;;;;;;;5113717;28;20045;-29
2024/03/06 05:05:25;;;;;;;7.82;1.58;;;;;;;;;;5113245;28;20121;-28
2024/03/06 05:07:52;;;;;;;4.47;1.55;;;;;;;;;;5113830;28;20024;-28
2024/03/06 05:10:19;;;;;;;3.05;0.95;;;;;;;;;;5113757;28;20023;-26
2024/03/06 05:12:46;;;;;;;5.60;1.60;;;;;;;;;;5113506;28;20488;-27
2024/03/06 05:15:13;;;;;;;5.45;1.52;;;;;;;;;;5113655;28;20034;-26
2024/03/06 05:17:40;;;;;;;6.07;1.35;;;;;;;;;;5113515;28;20047;-26
2024/03/06 05:20:07;;;;;;;9.43;1.70;;;;;;;;;;5113577;28;20032;-27
2024/03/06 05:22:34;;;;;;;6.15;1.48;;;;;;;;;;5113448;28;20036;-28
2024/03/06 05:25:01;;;;;;;4.93;1.13;;;;;;;;;;5113131;28;20040;-26
2024/03/06 05:27:28;;;;;;;4.85;1.45;;;;;;;;;;5113463;28;20027;-27
2024/03/06 05:29:55;;;;;;;6.47;1.63;;;;;;;;;;5113345;28;20023;-29
2024/03/06 05:32:22;;;;;;;5.53;1.42;;;;;;;;;;5113193;28;20035;-27
2024/03/06 05:34:49;;;;;;;3.55;0.90;;;;;;;;;;5113132;28;20031;-27
2024/03/06 05:37:17;;;;;;;5.55;1.50;;;;;;;;;;5113159;28;20031;-27
2024/03/06 05:39:44;;;;;;;5.35;1.20;;;;;;;;;;5113039;28;20072;-27
2024/03/06 05:42:11;;;;;;;11.65;1.50;;;;;;;;;;5113050;28;20050;-28
2024/03/06 05:44:38;;;;;;;7.50;1.42;;;;;;;;;;5113026;28;20022;-26
2024/03/06 05:47:06;;;;;;;8.02;1.48;;;;;;;;;;5113072;28;20015;-28
2024/03/06 05:49:34;;;;;;;8.63;1.30;;;;;;;;;;5112799;28;20534;-29
2024/03/06 05:52:02;;;;;;;8.27;1.67;;;;;;;;;;5112923;28;20023;-27
2024/03/06 05:54:33;;;;;;;5.82;1.17;;;;;;;;;;5112663;28;20531;-26
2024/03/06 05:57:00;;;;;;;4.10;1.30;;;;;;;;;;5113082;28;20385;-28
2024/03/06 05:59:28;;;;;;;7.03;1.58;;;;;;;;;;5112816;28;20016;-26
2024/03/06 06:01:56;;;;;;;7.10;1.85;;;;;;;;;;5100383;28;20036;-28
2024/03/06 06:04:23;;;;;;;3.25;1.25;;;;;;;;;;5092270;28;20031;-29
2024/03/06 06:06:50;;;;;;;5.70;1.45;;;;;;;;;;5092349;28;20093;-32
2024/03/06 06:09:17;;;;;;;5.40;1.70;;;;;;;;;;5092095;28;20028;-28
2024/03/06 06:11:45;;;;;;;4.22;1.10;;;;;;;;;;5092454;28;20039;-28
2024/03/06 06:14:12;;;;;;;4.70;1.52;;;;;;;;;;5092085;28;20031;-26
2024/03/06 06:16:40;;;;;;;5.72;1.70;;;;;;;;;;5091159;28;20024;-27
2024/03/06 06:19:07;;;;;;;6.35;2.05;;;;;;;;;;5091946;28;20028;-27
2024/03/06 06:21:35;;;;;;;6.60;1.60;;;;;;;;;;5092005;28;20031;-27
2024/03/06 06:24:06;;;;;;;9.90;1.95;;;;;;;;;;5091823;28;20739;-29
2024/03/06 06:26:33;;;;;;;7.30;1.77;;;;;;;;;;5091677;28;20083;-27
2024/03/06 06:29:00;;;;;;;4.65;1.48;;;;;;;;;;5091889;28;20020;-27
2024/03/06 06:31:27;;;;;;;4.18;1.33;;;;;;;;;;5092068;28;20416;-26
2024/03/06 06:33:54;;;;;;;4.57;1.00;;;;;;;;;;5091774;28;20081;-26
2024/03/06 06:36:21;;;;;;;7.50;1.88;;;;;;;;;;5091874;28;20024;-28
2024/03/06 06:38:49;;;;;;;3.75;1.40;;;;;;;;;;5091829;28;20024;-27
2024/03/06 06:41:16;;;;;;;7.97;1.80;;;;;;;;;;5091748;28;20081;-27
2024/03/06 06:43:43;;;;;;;4.38;1.35;;;;;;;;;;5091593;28;20038;-26
2024/03/06 06:46:10;;;;;;;6.38;1.55;;;;;;;;;;5073596;28;20492;-27
2024/03/06 06:48:37;;;;;;;4.55;1.42;;;;;;;;;;5091715;28;20020;-27
2024/03/06 06:51:04;;;;;;;6.28;1.30;;;;;;;;;;5091726;28;20016;-28
2024/03/06 06:53:31;;;;;;;4.28;1.40;;;;;;;;;;5091551;28;20024;-27
2024/03/06 06:55:59;;;;;;;3.47;1.52;;;;;;;;;;5091553;28;20048;-27
2024/03/06 06:58:27;;;;;;;4.97;1.50;;;;;;;;;;5091613;28;20028;-26
2024/03/06 07:00:54;;;;;;;9.23;1.88;;;;;;;;;;5091478;28;20036;-29
2024/03/06 07:03:23;;;;;;;6.53;1.45;;;;;;;;;;5091416;28;20028;-27
2024/03/06 07:05:50;;;;;;;6.22;1.45;;;;;;;;;;5091397;28;20081;-28
2024/03/06 07:08:17;;;;;;;4.32;1.30;;;;;;;;;;5091371;28;20032;-31
2024/03/06 07:10:44;;;;;;;7.45;1.63;;;;;;;;;;5073308;28;20386;-29
2024/03/06 07:13:11;;;;;;;6.07;1.35;;;;;;;;;;5091420;28;20098;-29
2024/03/06 07:15:38;;;;;;;6.45;1.42;;;;;;;;;;5091308;28;20028;-29
2024/03/06 07:18:05;;;;;;;8.23;1.75;;;;;;;;;;5091453;28;20024;-29
2024/03/06 07:20:32;;;;;;;5.75;1.60;;;;;;;;;;5091403;28;20509;-30
2024/03/06 07:22:59;;;;;;;4.35;1.65;;;;;;;;;;5091277;28;20079;-29
2024/03/06 07:25:26;;;;;;;6.15;1.63;;;;;;;;;;5091263;28;20394;-30
2024/03/06 07:27:53;;;;;;;8.32;1.45;;;;;;;;;;5093340;28;20482;-30
2024/03/06 07:30:20;;;;;;;6.93;1.40;;;;;;;;;;5095385;28;20016;-31
2024/03/06 07:32:47;;;;;;;8.63;1.40;;;;;;;;;;5094868;28;20032;-29
2024/03/06 07:35:14;;;;;;;4.53;1.13;;;;;;;;;;5095196;28;20016;-28
2024/03/06 07:37:44;;;;;;;7.70;1.50;;;;;;;;;;5095248;28;20498;-30
2024/03/06 07:40:11;;;;;;;3.75;1.25;;;;;;;;;;5095055;28;20063;-29
2024/03/06 07:42:38;;;;;;;5.47;1.20;;;;;;;;;;5094930;28;20055;-29
2024/03/06 07:45:08;;;;;;;7.40;1.42;;;;;;;;;;5094991;28;20089;-28
2024/03/06 07:47:37;;;;;;;6.18;1.50;;;;;;;;;;5094922;28;20482;-29
2024/03/06 07:50:06;;;;;;;6.07;1.52;;;;;;;;;;5094839;28;20031;-27
2024/03/06 07:52:33;;;;;;;3.22;1.25;;;;;;;;;;5094865;28;20505;-26
2024/03/06 07:55:00;;;;;;;6.13;1.73;;;;;;;;;;5094867;28;20021;-26
2024/03/06 07:57:28;;;;;;;5.82;1.40;;;;;;;;;;5076483;28;20401;-27
2024/03/06 07:59:55;;;;;;;5.43;1.30;;;;;;;;;;5094626;28;20101;-29
2024/03/06 08:02:22;;;;;;;5.53;1.50;;;;;;;;;;5094614;28;20024;-26
2024/03/06 08:04:49;;;;;;;8.68;1.55;;;;;;;;;;5109203;27;20076;-32
2024/03/06 08:07:16;;;;;;;6.22;1.40;;;;;;;;;;5135580;27;20023;-32
2024/03/06 08:09:43;;;;;;;9.73;1.92;;;;;;;;;;5135361;27;20042;-31
2024/03/06 08:12:10;;;;;;;6.55;1.48;;;;;;;;;;5135466;27;20019;-29
2024/03/06 08:14:37;;;;;;;6.22;1.38;;;;;;;;;;5135336;27;20095;-28
2024/03/06 08:17:04;;;;;;;6.57;1.20;;;;;;;;;;5135357;27;20063;-30
2024/03/06 08:19:31;;;;;;;4.00;1.58;;;;;;;;;;5135381;27;20026;-31
2024/03/06 08:21:58;;;;;;;8.82;1.70;;;;;;;;;;5135250;27;20080;-33
2024/03/06 08:24:25;;;;;;;6.63;1.30;;;;;;;;;;5135009;27;20605;-28
2024/03/06 08:26:52;;;;;;;4.93;1.13;;;;;;;;;;5135239;27;20080;-32
2024/03/06 08:29:19;;;;;;;8.85;1.60;;;;;;;;;;5135213;27;20035;-28
2024/03/06 08:31:46;;;;;;;4.40;1.40;;;;;;;;;;5135015;27;20015;-30
2024/03/06 08:34:13;;;;;;;3.92;1.40;;;;;;;;;;5134834;27;20502;-29
2024/03/06 08:36:40;;;;;;;4.07;1.40;;;;;;;;;;5134956;27;20027;-29
2024/03/06 08:39:07;;;;;;;4.63;1.30;;;;;;;;;;5133801;27;20023;-29
2024/03/06 08:41:34;;;;;;;4.68;1.30;;;;;;;;;;5134947;27;20031;-29
2024/03/06 08:44:01;;;;;;;4.70;1.20;;;;;;;;;;5134752;27;20440;-29
2024/03/06 08:46:28;;;;;;;8.02;1.70;;;;;;;;;;5134766;27;20023;-28
2024/03/06 08:48:55;;;;;;;4.60;1.27;;;;;;;;;;5134636;27;20421;-30
2024/03/06 08:51:22;;;;;;;4.45;1.30;;;;;;;;;;5134777;27;20027;-32
2024/03/06 08:53:49;;;;;;;5.82;1.63;;;;;;;;;;5134584;27;20031;-32
2024/03/06 08:56:16;;;;;;;5.93;1.45;;;;;;;;;;5134633;27;20107;-31
2024/03/06 08:58:43;;;;;;;5.70;1.40;;;;;;;;;;5134500;27;20392;-33
2024/03/06 09:01:10;;;;;;;5.70;1.40;;;;;;;;;;5134409;27;20027;-33
2024/03/06 09:03:37;;;;;;;4.18;1.42;;;;;;;;;;5134275;27;20027;-31
2024/03/06 09:06:04;;;;;;;5.30;1.60;;;;;;;;;;5134281;27;20057;-33
2024/03/06 09:08:31;;;;;;;5.32;1.15;;;;;;;;;;5134314;27;20031;-32
2024/03/06 09:10:58;;;;;;;5.85;1.38;;;;;;;;;;5134136;27;20026;-33
2024/03/06 09:13:26;;;;;;;6.53;1.38;;;;;;;;;;5133988;27;20392;-33
2024/03/06 09:15:53;;;;;;;6.70;1.52;;;;;;;;;;5134176;27;20465;-32
2024/03/06 09:18:21;;;;;;;3.72;1.20;;;;;;;;;;5134195;27;20473;-31
2024/03/06 09:20:48;;;;;;;5.15;1.20;;;;;;;;;;5133881;27;20057;-31
2024/03/06 09:23:15;;;;;;;7.03;1.48;;;;;;;;;;5133863;27;20035;-33
2024/03/06 09:25:42;;;;;;;4.45;1.30;;;;;;;;;;5133770;27;20063;-34
2024/03/06 09:28:09;;;;;;;11.20;2.20;;;;;;;;;;5133392;27;20058;-29
2024/03/06 09:30:36;;;;;;;4.60;1.40;;;;;;;;;;5133841;27;20513;-29
2024/03/06 09:33:03;;;;;;;7.05;1.50;;;;;;;;;;5132505;27;20400;-29
2024/03/06 09:35:32;;;;;;;8.70;1.50;;;;;;;;;;5113143;28;20026;-30
2024/03/06 09:38:00;;;;;;;8.50;1.80;;;;;;;;;;5112293;28;20064;-27
2024/03/06 09:40:29;;;;;;;6.97;1.48;;;;;;;;;;5112724;28;20028;-30
2024/03/06 09:42:56;;;;;;;11.80;1.83;;;;;;;;;;5112487;28;20039;-27
2024/03/06 09:45:23;;;;;;;9.05;1.45;;;;;;;;;;5112998;28;20023;-27
2024/03/06 09:47:51;;;;;;;13.32;1.60;;;;;;;;;;5094471;28;20034;-26
2024/03/06 09:50:22;;;;;;;14.68;2.35;;;;;;;;;;5112823;28;20420;-26
2024/03/06 09:52:51;;;;;;;18.52;2.60;;;;;;;;;;5112949;28;20038;-27
2024/03/06 09:55:18;;;;;;;17.25;2.58;;;;;;;;;;5112995;28;20020;-26
2024/03/06 09:57:45;;;;;;;18.88;3.50;;;;;;;;;;5112918;28;20023;-29
2024/03/06 10:00:12;;;;;;;18.10;2.47;;;;;;;;;;5112748;28;20363;-27
2024/03/06 10:02:42;;;;;;;23.05;2.60;;;;;;;;;;5094286;28;20496;-30
2024/03/06 10:05:21;;;;;;;26.90;4.10;;;;;;;;;;5112719;28;20026;-28
2024/03/06 10:07:48;;;;;;;24.05;3.33;;;;;;;;;;5112725;28;20020;-26
2024/03/06 10:10:15;;;;;;;29.33;3.70;;;;;;;;;;5112725;28;20046;-27
2024/03/06 10:12:42;;;;;;;20.13;3.30;;;;;;;;;;5112549;28;20031;-27
2024/03/06 10:15:12;;;;;;;26.95;3.72;;;;;;;;;;5112580;28;20019;-27
2024/03/06 10:17:39;;;;;;;20.92;2.92;;;;;;;;;;5110022;28;20084;-30
2024/03/06 10:20:28;;;;;;;24.80;3.40;;;;;;;;;;5105851;28;20461;-26
2024/03/06 10:22:55;;;;;;;23.52;3.22;;;;;;;;;;5111957;28;20044;-26
2024/03/06 10:25:23;;;;;;;20.42;3.17;;;;;;;;;;5112236;28;20576;-27
2024/03/06 10:28:09;;;;;;;22.77;3.33;;;;;;;;;;5112310;28;20028;-26
2024/03/06 10:30:37;;;;;;;27.10;3.38;;;;;;;;;;5111785;28;20027;-29
2024/03/06 10:33:08;;;;;;;24.27;3.70;;;;;;;;;;5112215;28;20028;-31
2024/03/06 10:35:38;;;;;;;27.85;3.92;;;;;;;;;;5112111;28;20019;-29
2024/03/06 10:38:06;;;;;;;28.27;3.85;;;;;;;;;;5112130;28;20016;-31
2024/03/06 10:40:33;;;;;;;16.88;2.92;;;;;;;;;;5114888;27;20059;-30
2024/03/06 10:43:01;;;;;;;29.75;3.65;;;;;;;;;;5107260;28;20096;-30
2024/03/06 10:45:39;;;;;;;44.88;4.40;;;;;;;;;;5112159;28;20067;-30
2024/03/06 10:48:06;;;;;;;26.55;3.90;;;;;;;;;;5105294;28;20027;-27
2024/03/06 10:50:34;;;;;;;30.45;3.53;;;;;;;;;;5110113;28;20064;-28
2024/03/06 10:53:02;;;;;;;29.63;4.22;;;;;;;;;;5094559;28;20028;-33
2024/03/06 10:55:34;;;;;;;31.67;4.25;;;;;;;;;;5096529;28;20028;-28
2024/03/06 10:58:01;;;;;;;25.55;3.58;;;;;;;;;;5095457;28;20032;-28
2024/03/06 11:00:28;;;;;;;23.80;3.35;;;;;;;;;;5097320;28;20127;-31
2024/03/06 11:02:58;;;;;;;35.00;4.32;;;;;;;;;;5100523;28;20409;-30
2024/03/06 11:05:25;;;;;;;26.48;4.60;;;;;;;;;;5104423;28;20106;-32
2024/03/06 11:07:52;;;;;;;22.73;4.13;;;;;;;;;;5106484;28;20030;-31
2024/03/06 11:10:32;;;;;;;25.08;3.53;;;;;;;;;;5114024;28;20524;-30
2024/03/06 11:12:59;;;;;;;17.95;3.45;;;;;;;;;;5093698;27;20393;-36
2024/03/06 11:15:26;;;;;;;28.27;3.55;;;;;;;;;;5104003;28;20030;-27
2024/03/06 11:17:54;;;;;;;23.23;3.47;;;;;;;;;;5104242;28;20033;-26
2024/03/06 11:20:24;;;;;;;21.77;2.88;;;;;;;;;;5103848;28;20492;-31
2024/03/06 11:23:02;;;;;;;25.73;3.10;;;;;;;;;;5104773;28;20474;-28
2024/03/06 11:28:20;;;;;;;22.73;3.97;;;;;;;;;;5104349;28;20488;-27
2024/03/06 11:30:48;;;;;;;32.78;4.47;;;;;;;;;;5112647;28;20481;-27
2024/03/06 11:33:18;;;;;;;56.13;7.68;;;;;;;;;;5115363;28;20473;-35
2024/03/06 11:36:04;;;;;;;58.53;7.85;;;;;;;;;;5110434;28;20016;-29
2024/03/06 11:38:31;;;;;;;42.38;7.75;;;;;;;;;;5095019;28;20028;-31
2024/03/06 11:40:59;;;;;;;53.17;7.90;;;;;;;;;;5095099;28;20363;-32
2024/03/06 11:43:27;;;;;;;54.70;7.78;;;;;;;;;;5094327;28;20043;-27
2024/03/06 11:45:54;;;;;;;51.15;7.72;;;;;;;;;;5094758;28;20028;-28
2024/03/06 11:48:21;;;;;;;37.10;6.47;;;;;;;;;;5095017;28;20028;-27
2024/03/06 11:50:48;;;;;;;42.20;6.80;;;;;;;;;;5095008;28;20475;-28
2024/03/06 11:53:15;;;;;;;55.55;9.05;;;;;;;;;;5094829;28;20025;-27
2024/03/06 11:55:43;;;;;;;64.15;9.88;;;;;;;;;;5094943;28;20016;-26
2024/03/06 11:58:11;;;;;;;72.45;9.40;;;;;;;;;;5094678;28;20032;-29
2024/03/06 12:00:38;;;;;;;53.03;9.02;;;;;;;;;;5094970;28;20028;-27
2024/03/06 12:03:05;;;;;;;53.35;8.88;;;;;;;;;;5094610;28;20055;-29
2024/03/06 12:05:32;;;;;;;52.38;7.57;;;;;;;;;;5094782;28;20188;-27
2024/03/06 12:07:59;;;;;;;50.05;7.22;;;;;;;;;;5094727;28;20020;-29
2024/03/06 12:10:26;;;;;;;57.65;8.13;;;;;;;;;;5094598;28;20028;-28
2024/03/06 12:12:53;;;;;;;65.40;9.07;;;;;;;;;;5094526;28;20470;-28
2024/03/06 12:15:20;;;;;;;74.70;9.18;;;;;;;;;;5094552;28;20169;-27
2024/03/06 12:17:51;;;;;;;56.38;8.73;;;;;;;;;;5094600;28;20032;-27
2024/03/06 12:20:18;;;;;;;64.22;8.98;;;;;;;;;;5094592;28;20161;-26
2024/03/06 12:22:46;;;;;;;77.25;9.70;;;;;;;;;;5094209;28;20494;-27
2024/03/06 12:25:22;;;;;;;91.57;10.88;;;;;;;;;;5094223;28;20510;-26
2024/03/06 12:27:49;;;;;;;90.78;10.73;;;;;;;;;;5094308;28;20030;-26
2024/03/06 12:30:20;;;;;;;112.53;13.75;;;;;;;;;;5094286;28;20082;-27
2024/03/06 12:33:04;;;;;;;147.98;13.98;;;;;;;;;;5093986;28;20494;-27
2024/03/06 12:35:31;;;;;;;113.60;12.07;;;;;;;;;;5094141;28;20482;-26
2024/03/06 12:37:58;;;;;;;137.77;16.35;;;;;;;;;;5093957;28;20024;-28
2024/03/06 12:40:28;;;;;;;127.03;14.27;;;;;;;;;;5094059;28;20049;-27
2024/03/06 12:42:55;;;;;;;117.63;13.82;;;;;;;;;;5093714;28;20044;-29
2024/03/06 12:45:22;;;;;;;147.98;15.15;;;;;;;;;;5093892;28;20091;-28
2024/03/06 12:47:49;;;;;;;139.85;15.32;;;;;;;;;;5093805;28;20035;-29
2024/03/06 12:50:16;;;;;;;208.00;18.20;;;;;;;;;;5093842;28;20024;-27
2024/03/06 12:52:45;;;;;;;145.10;14.70;;;;;;;;;;5093747;28;20035;-28
2024/03/06 12:55:14;;;;;;;127.72;14.00;;;;;;;;;;5093683;28;20047;-28
2024/03/06 12:57:41;;;;;;;112.60;12.27;;;;;;;;;;5093746;28;20028;-27
2024/03/06 13:00:15;;;;;;;108.78;12.15;;;;;;;;;;5093732;28;20379;-28
2024/03/06 13:02:46;;;;;;;123.47;12.32;;;;;;;;;;5093396;28;20040;-29
2024/03/06 13:05:13;;;;;;;111.93;10.25;;;;;;;;;;5093522;28;20028;-28
2024/03/06 13:07:42;;;;;;;80.45;9.38;;;;;;;;;;5093561;28;20024;-29
2024/03/06 13:10:10;;;;;;;75.95;8.63;;;;;;;;;;5093446;28;20043;-27
2024/03/06 13:12:37;;;;;;;76.03;8.55;;;;;;;;;;5093307;28;20494;-26
2024/03/06 13:15:07;;;;;;;52.13;6.70;;;;;;;;;;5093475;28;20051;-27
2024/03/06 13:17:34;;;;;;;65.50;8.10;;;;;;;;;;5093287;28;20032;-26
2024/03/06 13:20:01;;;;;;;82.82;11.18;;;;;;;;;;5093329;28;20032;-27
2024/03/06 13:22:29;;;;;;;86.72;12.15;;;;;;;;;;5093221;28;20044;-28
2024/03/06 13:24:57;;;;;;;96.32;11.38;;;;;;;;;;5092559;28;20044;-27
2024/03/06 13:27:24;;;;;;;121.68;14.68;;;;;;;;;;5093102;28;20028;-26
2024/03/06 13:29:51;;;;;;;128.98;18.80;;;;;;;;;;5093133;28;20359;-26
2024/03/06 13:32:18;;;;;;;134.02;18.48;;;;;;;;;;5092926;28;20052;-27
2024/03/06 13:34:45;;;;;;;155.75;21.80;;;;;;;;;;5093077;28;20027;-26
2024/03/06 13:37:12;;;;;;;188.63;26.50;;;;;;;;;;5093174;28;20028;-27
2024/03/06 13:39:39;;;;;;;211.52;29.58;;;;;;;;;;5093000;28;20039;-27
2024/03/06 13:42:06;;;;;;;215.50;26.08;;;;;;;;;;5092870;28;20474;-28
2024/03/06 13:44:33;;;;;;;213.43;28.77;;;;;;;;;;5092749;28;20036;-27
2024/03/06 13:47:00;;;;;;;185.90;26.58;;;;;;;;;;5092912;28;20027;-27
2024/03/06 13:49:37;;;;;;;142.43;21.27;;;;;;;;;;5092674;28;20032;-28
2024/03/06 13:52:05;;;;;;;111.13;15.45;;;;;;;;;;5092644;28;20058;-26
2024/03/06 13:54:32;;;;;;;97.20;12.88;;;;;;;;;;5092605;28;20050;-28
2024/03/06 13:57:02;;;;;;;87.32;10.48;;;;;;;;;;5092653;28;20059;-27
2024/03/06 13:59:32;;;;;;;65.35;8.35;;;;;;;;;;5092629;28;20028;-27
2024/03/06 14:01:59;;;;;;;53.60;7.25;;;;;;;;;;5092555;28;20189;-27
2024/03/06 14:04:27;;;;;;;57.45;6.25;;;;;;;;;;5092364;28;20128;-26
2024/03/06 14:06:54;;;;;;;41.13;5.63;;;;;;;;;;5092484;28;20545;-26
2024/03/06 14:09:23;;;;;;;36.25;5.45;;;;;;;;;;5092465;28;20051;-30
2024/03/06 14:11:50;;;;;;;72.65;8.65;;;;;;;;;;5092235;28;20063;-27
2024/03/06 14:14:18;;;;;;;98.35;14.95;;;;;;;;;;5092266;28;20031;-26
2024/03/06 14:16:45;;;;;;;130.55;20.60;;;;;;;;;;5092183;28;20086;-26
2024/03/06 14:19:13;;;;;;;115.63;17.40;;;;;;;;;;5092235;28;20020;-29
2024/03/06 14:21:40;;;;;;;93.28;13.90;;;;;;;;;;5092130;28;20458;-28
2024/03/06 14:24:07;;;;;;;84.35;13.15;;;;;;;;;;5091974;28;20110;-26
2024/03/06 14:26:34;;;;;;;68.57;9.05;;;;;;;;;;5091939;28;20048;-27
2024/03/06 14:29:07;;;;;;;61.50;9.05;;;;;;;;;;5092158;28;20024;-26
2024/03/06 14:31:34;;;;;;;42.78;6.43;;;;;;;;;;5091876;28;20085;-28
2024/03/06 14:34:01;;;;;;;45.97;6.10;;;;;;;;;;5091846;28;20039;-27
2024/03/06 14:36:28;;;;;;;46.50;5.32;;;;;;;;;;5091369;28;20097;-27
2024/03/06 14:38:55;;;;;;;33.88;4.80;;;;;;;;;;5091850;28;20028;-26